Time;durP1;ratioP1;P1;durP2;ratioP2;P2;SDS_P1;SDS_P2;PMS_P1;PMS_P2;Temp;Humidity;BMP_temperature;BMP_pressure;BME280_temperature;BME280_humidity;BME280_pressure;Samples;Min_cycle;Max_cycle;Signal;HPM_P1;HPM_P2
2022/10/03 00:02:35;;;;;;;1.50;1.40;;;;;;;15.17;nan;-24240.22;5094535;28;20179;-69
2022/10/03 00:05:26;;;;;;;1.67;1.48;;;;;;;15.28;nan;-24243.28;5094386;28;20177;-69
2022/10/03 00:08:07;;;;;;;1.40;1.30;;;;;;;14.93;nan;-24233.63;5079922;28;20639;-68
2022/10/03 00:11:17;;;;;;;1.52;1.38;;;;;;;15.17;nan;-24240.06;5094550;28;20161;-70
2022/10/03 00:14:05;;;;;;;1.38;1.27;;;;;;;15.42;nan;-24247.22;5094515;28;20169;-68
2022/10/03 00:16:40;;;;;;;1.38;1.27;;;;;;;15.62;nan;-24252.53;5079374;28;20185;-69
2022/10/03 00:19:46;;;;;;;1.88;1.50;;;;;;;15.75;nan;-24256.31;5094368;28;20247;-68
2022/10/03 00:22:36;;;;;;;1.20;1.10;;;;;;;15.95;nan;-24261.78;5094054;28;20213;-70
2022/10/03 00:25:21;;;;;;;1.80;1.50;;;;;;;15.78;nan;-24257.00;5093824;28;20211;-70
2022/10/03 00:28:08;;;;;;;1.40;1.30;;;;;;;16.08;nan;-24265.28;5093785;28;20552;-69
2022/10/03 00:31:01;;;;;;;1.52;1.33;;;;;;;15.70;nan;-24254.91;5093719;28;20196;-69
2022/10/03 00:33:47;;;;;;;1.60;1.50;;;;;;;15.80;nan;-24257.72;5093894;28;20252;-69
2022/10/03 00:36:18;;;;;;;1.30;1.20;;;;;;;15.95;nan;-24261.78;5093545;28;20605;-69
2022/10/03 00:42:34;;;;;;;1.80;1.50;;;;;;;15.96;nan;-24261.91;5093107;28;20304;-68
2022/10/03 00:45:20;;;;;;;1.80;1.40;;;;;;;15.69;nan;-24254.63;5093302;28;20265;-69
2022/10/03 00:48:06;;;;;;;1.40;1.30;;;;;;;15.75;nan;-24256.31;5093596;28;20162;-69
2022/10/03 00:50:51;;;;;;;2.28;1.63;;;;;;;15.60;nan;-24251.97;5093046;28;20637;-70
2022/10/03 00:53:36;;;;;;;1.52;1.42;;;;;;;15.65;nan;-24253.50;5093556;28;20173;-68
2022/10/03 00:56:57;;;;;;;2.45;1.45;;;;;;;15.51;nan;-24249.59;5093331;28;20169;-68
2022/10/03 00:59:56;;;;;;;1.20;1.10;;;;;;;15.13;nan;-24238.94;4994918;28;20235;-69
2022/10/03 01:02:51;;;;;;;1.00;1.00;;;;;;;15.28;nan;-24243.28;5092964;28;20169;-68
2022/10/03 01:05:48;;;;;;;1.30;1.20;;;;;;;15.62;nan;-24252.53;5091798;28;20177;-69
2022/10/03 01:08:37;;;;;;;1.40;1.30;;;;;;;15.49;nan;-24249.03;5092827;28;20180;-68
2022/10/03 01:14:54;;;;;;;1.40;1.30;;;;;;;14.82;nan;-24230.41;5091599;28;20201;-68
2022/10/03 01:17:47;;;;;;;1.25;1.10;;;;;;;15.03;nan;-24236.44;5091742;28;20262;-68
2022/10/03 01:20:27;;;;;;;1.25;1.15;;;;;;;14.84;nan;-24230.97;5092291;28;20288;-67
2022/10/03 01:23:29;;;;;;;1.40;1.30;;;;;;;14.72;nan;-24227.59;5092375;28;20220;-69
2022/10/03 01:26:22;;;;;;;1.50;1.40;;;;;;;14.55;nan;-24222.97;5092985;28;20233;-70
2022/10/03 01:32:24;;;;;;;1.67;1.35;;;;;;;14.23;nan;-24214.13;5091964;28;20169;-69
2022/10/03 01:35:35;;;;;;;1.65;1.45;;;;;;;14.64;nan;-24225.34;5092856;28;20252;-70
2022/10/03 01:38:26;;;;;;;1.75;1.33;;;;;;;14.56;nan;-24223.25;4989589;28;20726;-70
2022/10/03 01:41:23;;;;;;;1.63;1.52;;;;;;;14.40;nan;-24218.75;4990934;28;20169;-69
2022/10/03 01:44:23;;;;;;;4.80;1.90;;;;;;;14.44;nan;-24219.88;5055886;28;20672;-68
2022/10/03 01:47:08;;;;;;;1.90;1.63;;;;;;;14.30;nan;-24216.09;5090029;28;20630;-70
2022/10/03 01:49:45;;;;;;;1.77;1.58;;;;;;;14.18;nan;-24212.59;5090802;28;20654;-68
2022/10/03 01:52:17;;;;;;;2.72;1.73;;;;;;;14.15;nan;-24212.03;5096519;28;20179;-68
2022/10/03 01:54:58;;;;;;;2.22;1.90;;;;;;;14.04;nan;-24208.94;5088992;28;20284;-68
2022/10/03 01:57:41;;;;;;;1.77;1.52;;;;;;;13.99;nan;-24207.41;5089629;28;20280;-68
2022/10/03 02:00:17;;;;;;;2.60;1.60;;;;;;;13.54;nan;-24194.91;5086075;28;20194;-69
2022/10/03 02:03:10;;;;;;;1.88;1.63;;;;;;;13.63;nan;-24197.44;5100843;28;20179;-69
2022/10/03 02:05:59;;;;;;;1.98;1.75;;;;;;;13.93;nan;-24205.72;5084692;28;20177;-68
2022/10/03 02:08:32;;;;;;;1.92;1.70;;;;;;;13.82;nan;-24202.78;5091587;28;20176;-68
2022/10/03 02:11:02;;;;;;;1.92;1.55;;;;;;;13.69;nan;-24199.25;5092169;28;20703;-69
2022/10/03 02:13:50;;;;;;;1.70;1.60;;;;;;;13.63;nan;-24197.56;5080254;28;20178;-68
2022/10/03 02:16:50;;;;;;;2.65;1.85;;;;;;;13.60;nan;-24196.59;5097542;28;20558;-70
2022/10/03 02:19:36;;;;;;;2.58;1.90;;;;;;;13.48;nan;-24193.34;5073688;28;20204;-69
2022/10/03 02:22:02;;;;;;;2.15;1.77;;;;;;;13.10;nan;-24182.69;5085049;28;20586;-69
2022/10/03 02:24:37;;;;;;;3.38;1.95;;;;;;;13.43;nan;-24191.94;5084523;28;20276;-68
2022/10/03 02:27:17;;;;;;;3.20;1.90;;;;;;;13.42;nan;-24191.53;5099086;28;20181;-69
2022/10/03 02:30:10;;;;;;;2.30;1.98;;;;;;;13.48;nan;-24193.34;5089986;28;20184;-69
2022/10/03 02:33:22;;;;;;;2.83;2.00;;;;;;;13.61;nan;-24197.00;5099221;28;20181;-68
2022/10/03 02:36:31;;;;;;;3.58;1.95;;;;;;;13.63;nan;-24197.56;5084783;28;20217;-68
2022/10/03 02:39:12;;;;;;;3.78;1.80;;;;;;;13.62;nan;-24197.28;5088874;28;20205;-70
2022/10/03 02:42:14;;;;;;;2.55;2.03;;;;;;;13.61;nan;-24197.00;5102991;28;20216;-69
2022/10/03 02:45:06;;;;;;;2.78;2.25;;;;;;;13.63;nan;-24197.44;5098120;28;20215;-69
2022/10/03 02:48:00;;;;;;;4.43;2.13;;;;;;;13.76;nan;-24200.94;5079302;28;20188;-68
2022/10/03 02:50:40;;;;;;;2.25;1.88;;;;;;;13.75;nan;-24200.66;5097943;28;20185;-69
2022/10/03 02:53:21;;;;;;;2.45;2.20;;;;;;;13.76;nan;-24201.09;5078178;28;20180;-69
2022/10/03 02:56:33;;;;;;;4.55;2.50;;;;;;;13.87;nan;-24204.16;5102874;28;20173;-69
2022/10/03 02:59:23;;;;;;;2.50;2.25;;;;;;;13.64;nan;-24197.84;5092677;28;20271;-68
2022/10/03 03:02:21;;;;;;;5.22;2.85;;;;;;;13.32;nan;-24188.72;5084676;28;20205;-68
2022/10/03 03:05:14;;;;;;;5.50;2.72;;;;;;;13.62;nan;-24197.28;5030716;28;20626;-70
2022/10/03 03:08:18;;;;;;;3.47;2.25;;;;;;;13.60;nan;-24196.59;5097416;28;20279;-70
2022/10/03 03:11:21;;;;;;;3.45;2.28;;;;;;;13.54;nan;-24195.03;5008712;28;20251;-69
2022/10/03 03:14:08;;;;;;;3.00;2.47;;;;;;;13.44;nan;-24192.09;5098364;28;20180;-70
2022/10/03 03:16:59;;;;;;;3.00;2.38;;;;;;;13.20;nan;-24185.50;5096842;28;20707;-69
2022/10/03 03:19:40;;;;;;;5.20;3.08;;;;;;;13.21;nan;-24185.91;5094895;28;20204;-71
2022/10/03 03:22:27;;;;;;;6.28;3.72;;;;;;;13.01;nan;-24180.28;5094928;28;20228;-70
2022/10/03 03:24:59;;;;;;;7.30;3.88;;;;;;;13.36;nan;-24189.84;5087177;28;20268;-70
2022/10/03 03:27:41;;;;;;;13.60;3.45;;;;;;;13.23;nan;-24186.34;5080271;28;20676;-70
2022/10/03 03:30:07;;;;;;;7.07;3.03;;;;;;;13.36;nan;-24190.00;5081302;28;20174;-69
2022/10/03 03:32:51;;;;;;;6.05;3.67;;;;;;;13.20;nan;-24185.63;5080314;28;20264;-69
2022/10/03 03:35:20;;;;;;;5.75;3.38;;;;;;;13.19;nan;-24185.34;5079332;28;20185;-70
2022/10/03 03:37:52;;;;;;;7.85;3.55;;;;;;;13.18;nan;-24185.06;5080387;28;20205;-70
2022/10/03 03:40:39;;;;;;;5.07;3.15;;;;;;;13.15;nan;-24184.22;5079557;28;20640;-70
2022/10/03 03:43:12;;;;;;;5.55;3.47;;;;;;;13.11;nan;-24183.09;5079523;28;20245;-70
2022/10/03 03:46:03;;;;;;;4.85;2.78;;;;;;;13.15;nan;-24184.09;5080672;28;20178;-70
2022/10/03 03:48:39;;;;;;;3.83;2.25;;;;;;;13.37;nan;-24190.13;5079344;28;20201;-69
2022/10/03 03:51:34;;;;;;;3.30;2.38;;;;;;;13.53;nan;-24194.75;5079341;28;20592;-70
2022/10/03 03:54:02;;;;;;;2.78;2.45;;;;;;;13.28;nan;-24187.88;5076503;28;20189;-70
2022/10/03 03:56:33;;;;;;;3.78;2.53;;;;;;;13.36;nan;-24189.84;5077703;28;20649;-69
2022/10/03 03:59:25;;;;;;;3.78;2.30;;;;;;;13.03;nan;-24180.84;5079486;28;20201;-69
2022/10/03 04:02:28;;;;;;;3.13;2.30;;;;;;;13.42;nan;-24191.53;5076943;28;20862;-69
2022/10/03 04:05:22;;;;;;;2.17;1.75;;;;;;;13.49;nan;-24193.63;5080018;28;20170;-68
2022/10/03 04:07:58;;;;;;;2.38;2.17;;;;;;;13.38;nan;-24190.41;5081416;28;20674;-68
2022/10/03 04:10:52;;;;;;;2.30;1.85;;;;;;;13.60;nan;-24196.72;5096228;28;20195;-68
2022/10/03 04:13:59;;;;;;;3.33;1.83;;;;;;;13.75;nan;-24200.81;5090107;28;20640;-68
2022/10/03 04:19:58;;;;;;;2.25;1.90;;;;;;;13.69;nan;-24199.13;5093577;28;20208;-70
2022/10/03 04:22:51;;;;;;;2.72;2.17;;;;;;;13.75;nan;-24200.81;5073263;28;20272;-69
2022/10/03 04:25:45;;;;;;;2.88;1.88;;;;;;;13.28;nan;-24187.88;5073620;28;20261;-69
2022/10/03 04:28:37;;;;;;;2.30;1.75;;;;;;;13.70;nan;-24199.53;5074197;28;20213;-69
2022/10/03 04:31:13;;;;;;;1.60;1.50;;;;;;;13.84;nan;-24203.31;5076416;28;20177;-69
2022/10/03 04:34:07;;;;;;;2.28;1.50;;;;;;;13.93;nan;-24205.84;5092248;28;20183;-69
2022/10/03 04:37:04;;;;;;;2.35;1.60;;;;;;;13.71;nan;-24199.69;5077249;28;20177;-68
2022/10/03 04:39:42;;;;;;;1.55;1.45;;;;;;;13.75;nan;-24200.66;5093022;28;20201;-69
2022/10/03 04:42:07;;;;;;;2.30;1.58;;;;;;;13.95;nan;-24206.28;5092843;28;20543;-70
2022/10/03 04:44:51;;;;;;;1.80;1.70;;;;;;;14.04;nan;-24208.94;5092917;28;20248;-69
2022/10/03 04:47:27;;;;;;;1.50;1.40;;;;;;;13.84;nan;-24203.31;5092475;28;20568;-62
2022/10/03 04:50:18;;;;;;;2.15;1.50;;;;;;;14.05;nan;-24209.22;5092487;28;20260;-65
2022/10/03 04:52:50;;;;;;;1.90;1.45;;;;;;;13.99;nan;-24207.53;5080668;28;20224;-64
2022/10/03 04:55:40;;;;;;;1.60;1.50;;;;;;;13.60;nan;-24196.59;5096477;28;20543;-64
2022/10/03 04:58:05;;;;;;;1.80;1.70;;;;;;;13.94;nan;-24206.13;5092411;28;20196;-65
2022/10/03 05:00:45;;;;;;;1.60;1.50;;;;;;;14.05;nan;-24209.09;5092309;28;20165;-64
2022/10/03 05:03:42;;;;;;;1.40;1.30;;;;;;;14.22;nan;-24213.72;5073393;28;20530;-63
2022/10/03 05:06:20;;;;;;;2.08;1.70;;;;;;;14.31;nan;-24216.38;5091297;28;20177;-64
2022/10/03 05:09:14;;;;;;;2.13;1.60;;;;;;;14.36;nan;-24217.78;5092075;28;20541;-65
2022/10/03 05:12:08;;;;;;;1.40;1.30;;;;;;;14.34;nan;-24217.22;5092074;28;20177;-64
2022/10/03 05:14:58;;;;;;;1.48;1.38;;;;;;;14.33;nan;-24216.94;5091886;28;20277;-64
2022/10/03 05:17:41;;;;;;;1.60;1.50;;;;;;;14.39;nan;-24218.47;5092244;28;20185;-64
2022/10/03 05:20:30;;;;;;;1.60;1.48;;;;;;;14.22;nan;-24213.72;5091891;28;20192;-64
2022/10/03 05:23:10;;;;;;;2.10;1.70;;;;;;;14.45;nan;-24220.31;5091177;28;20229;-66
2022/10/03 05:26:14;;;;;;;1.60;1.50;;;;;;;14.58;nan;-24223.94;5091862;28;20242;-63
2022/10/03 05:28:39;;;;;;;2.30;1.65;;;;;;;14.58;nan;-24223.81;5069794;28;20282;-65
2022/10/03 05:31:19;;;;;;;2.05;1.75;;;;;;;14.68;nan;-24226.47;5091802;28;20224;-64
2022/10/03 05:33:53;;;;;;;2.47;1.83;;;;;;;14.63;nan;-24225.06;5092169;28;20184;-64
2022/10/03 05:36:30;;;;;;;2.35;1.80;;;;;;;15.02;nan;-24236.00;5091865;28;20589;-64
2022/10/03 05:39:27;;;;;;;2.90;1.90;;;;;;;14.64;nan;-24225.50;5091336;28;20221;-63
2022/10/03 05:41:55;;;;;;;2.13;1.80;;;;;;;15.08;nan;-24237.53;5092031;28;20257;-63
2022/10/03 05:44:42;;;;;;;1.75;1.52;;;;;;;15.16;nan;-24239.78;5091628;28;20180;-64
2022/10/03 05:47:44;;;;;;;2.92;1.95;;;;;;;15.12;nan;-24238.66;5091833;28;20185;-64
2022/10/03 05:50:27;;;;;;;1.95;1.50;;;;;;;15.08;nan;-24237.53;5091690;28;20176;-64
2022/10/03 05:53:03;;;;;;;3.22;2.08;;;;;;;15.42;nan;-24247.06;5091510;28;20244;-64
2022/10/03 05:55:52;;;;;;;2.35;1.65;;;;;;;15.06;nan;-24237.13;5091532;28;20184;-65
2022/10/03 05:58:21;;;;;;;1.67;1.55;;;;;;;15.53;nan;-24250.16;5090534;28;20216;-64
2022/10/03 06:01:04;;;;;;;1.88;1.42;;;;;;;15.78;nan;-24257.00;5091402;28;20227;-63
2022/10/03 06:03:54;;;;;;;1.98;1.55;;;;;;;15.84;nan;-24258.84;5091255;28;20177;-65
2022/10/03 06:06:41;;;;;;;2.75;1.50;;;;;;;15.64;nan;-24253.09;5091416;28;20169;-63
2022/10/03 06:09:22;;;;;;;1.42;1.33;;;;;;;16.03;nan;-24263.88;5091367;28;20613;-64
2022/10/03 06:12:06;;;;;;;1.65;1.55;;;;;;;16.00;nan;-24263.16;5091788;28;20248;-65
2022/10/03 06:14:49;;;;;;;1.25;1.15;;;;;;;16.30;nan;-24271.41;5091176;28;20169;-65
2022/10/03 06:17:15;;;;;;;1.40;1.30;;;;;;;16.26;nan;-24270.44;5090721;28;20177;-66
2022/10/03 06:19:49;;;;;;;1.52;1.38;;;;;;;16.30;nan;-24271.41;5091857;28;20173;-66
2022/10/03 06:23:05;;;;;;;2.28;1.52;;;;;;;16.59;nan;-24279.41;5090935;28;20305;-65
2022/10/03 06:25:55;;;;;;;1.63;1.33;;;;;;;16.40;nan;-24274.06;5047986;28;20177;-66
2022/10/03 06:28:39;;;;;;;1.98;1.40;;;;;;;16.77;nan;-24284.56;5092072;28;20181;-67
2022/10/03 06:31:26;;;;;;;1.33;1.20;;;;;;;16.89;nan;-24287.78;5091068;28;20213;-65
2022/10/03 06:34:30;;;;;;;1.92;1.50;;;;;;;17.11;nan;-24293.78;5091372;28;20169;-64
2022/10/03 06:37:16;;;;;;;1.52;1.30;;;;;;;17.22;nan;-24296.84;5072839;28;20181;-64
2022/10/03 06:40:16;;;;;;;3.10;1.40;;;;;;;17.18;nan;-24295.88;5091213;28;20170;-65
2022/10/03 06:43:02;;;;;;;1.65;1.27;;;;;;;17.50;nan;-24304.66;5091535;28;20194;-63
2022/10/03 06:45:49;;;;;;;2.00;1.58;;;;;;;17.61;nan;-24307.75;5080387;28;20185;-64
2022/10/03 06:48:27;;;;;;;1.70;1.30;;;;;;;17.67;nan;-24309.41;5096330;28;20286;-65
2022/10/03 06:51:19;;;;;;;1.52;1.40;;;;;;;17.56;nan;-24306.19;5091058;28;20188;-66
2022/10/03 06:53:49;;;;;;;1.40;1.23;;;;;;;18.13;nan;-24321.81;5079430;28;20205;-66
2022/10/03 06:56:30;;;;;;;1.60;1.50;;;;;;;18.26;nan;-24325.44;5082357;28;20181;-66
2022/10/03 06:59:03;;;;;;;1.58;1.40;;;;;;;18.67;nan;-24336.72;5090763;28;20283;-67
2022/10/03 07:01:32;;;;;;;2.88;2.33;;;;;;;18.84;nan;-24341.47;5090817;28;20269;-65
2022/10/03 07:04:12;;;;;;;2.15;1.60;;;;;;;19.05;nan;-24347.19;5090733;28;20628;-64
2022/10/03 07:06:41;;;;;;;1.50;1.25;;;;;;;19.35;nan;-24355.66;5090480;28;20173;-63
2022/10/03 07:09:34;;;;;;;1.63;1.27;;;;;;;19.82;nan;-24368.47;5090502;28;20247;-67
2022/10/03 07:12:37;;;;;;;2.08;1.27;;;;;;;20.12;nan;-24376.66;5090789;28;20641;-66
2022/10/03 07:15:25;;;;;;;1.75;1.60;;;;;;;20.11;nan;-24376.50;5091046;28;20648;-65
2022/10/03 07:17:53;;;;;;;1.50;1.40;;;;;;;19.78;nan;-24367.47;5090470;28;20193;-64
2022/10/03 07:20:39;;;;;;;2.00;1.58;;;;;;;19.98;nan;-24372.91;5090753;28;20176;-65
2022/10/03 07:23:38;;;;;;;1.88;1.45;;;;;;;20.31;nan;-24381.78;5090286;28;20221;-64
2022/10/03 07:26:41;;;;;;;1.83;1.30;;;;;;;20.63;nan;-24390.81;5090909;28;20539;-65
2022/10/03 07:29:41;;;;;;;1.05;0.90;;;;;;;20.66;nan;-24391.66;5094239;28;20181;-66
2022/10/03 07:32:39;;;;;;;1.42;1.20;;;;;;;20.93;nan;-24398.88;5094354;28;20536;-65
2022/10/03 07:35:19;;;;;;;1.58;1.00;;;;;;;21.23;nan;-24407.03;5053133;28;20185;-65
2022/10/03 07:41:31;;;;;;;1.90;1.25;;;;;;;21.34;nan;-24410.09;5093525;28;20172;-65
2022/10/03 07:44:18;;;;;;;1.10;1.00;;;;;;;21.64;nan;-24418.28;5093354;28;20169;-64
2022/10/03 07:47:22;;;;;;;1.45;1.10;;;;;;;21.54;nan;-24415.78;5093583;28;20169;-66
2022/10/03 07:49:59;;;;;;;1.85;1.30;;;;;;;21.58;nan;-24416.88;5093759;28;20231;-63
2022/10/03 07:52:56;;;;;;;1.40;1.10;;;;;;;21.79;nan;-24422.56;5093287;28;20173;-67
2022/10/03 07:55:48;;;;;;;1.55;1.45;;;;;;;21.89;nan;-24425.34;5093306;28;20158;-64
2022/10/03 07:58:25;;;;;;;1.10;1.00;;;;;;;22.26;nan;-24435.44;5093205;28;20694;-65
2022/10/03 08:01:09;;;;;;;1.45;1.20;;;;;;;22.17;nan;-24432.97;5093280;28;20218;-65
2022/10/03 08:03:56;;;;;;;1.73;1.17;;;;;;;22.15;nan;-24432.25;5093470;28;20636;-65
2022/10/03 08:06:44;;;;;;;1.30;1.20;;;;;;;22.78;nan;-24449.69;5093663;28;20168;-63
2022/10/03 08:09:40;;;;;;;2.05;1.27;;;;;;;23.01;nan;-24455.78;5093461;28;20169;-65
2022/10/03 08:12:30;;;;;;;2.28;1.58;;;;;;;23.09;nan;-24458.00;5093587;28;20555;-64
2022/10/03 08:15:44;;;;;;;2.42;1.30;;;;;;;22.84;nan;-24451.22;5093936;28;20223;-64
2022/10/03 08:18:35;;;;;;;1.25;1.10;;;;;;;22.64;nan;-24445.81;5093036;28;20197;-64
2022/10/03 08:21:19;;;;;;;2.00;1.25;;;;;;;22.39;nan;-24439.03;5092781;28;20495;-64
2022/10/03 08:23:53;;;;;;;2.13;1.63;;;;;;;22.83;nan;-24450.94;5092643;28;20592;-64
2022/10/03 08:26:19;;;;;;;1.38;1.27;;;;;;;22.70;nan;-24447.50;5093388;28;20305;-64
2022/10/03 08:29:02;;;;;;;1.55;1.30;;;;;;;22.50;nan;-24441.94;5093245;28;20218;-64
2022/10/03 08:31:47;;;;;;;1.20;1.10;;;;;;;21.99;nan;-24428.13;5092926;28;20162;-65
2022/10/03 08:34:27;;;;;;;2.08;1.23;;;;;;;21.76;nan;-24421.75;5093013;28;20617;-63
2022/10/03 08:37:13;;;;;;;3.00;1.67;;;;;;;21.94;nan;-24426.72;5092785;28;20252;-64
2022/10/03 08:39:54;;;;;;;1.90;1.50;;;;;;;21.74;nan;-24421.03;5074484;28;20197;-63
2022/10/03 08:42:43;;;;;;;2.15;1.20;;;;;;;22.00;nan;-24428.38;5092358;28;20643;-63
2022/10/03 08:45:18;;;;;;;1.42;1.30;;;;;;;21.93;nan;-24426.44;5092584;28;20621;-64
2022/10/03 08:47:52;;;;;;;2.53;1.40;;;;;;;21.84;nan;-24423.81;5092465;28;20180;-67
2022/10/03 08:50:31;;;;;;;1.75;1.27;;;;;;;21.31;nan;-24409.41;5092427;28;20169;-66
2022/10/03 08:53:02;;;;;;;1.38;1.17;;;;;;;21.73;nan;-24420.78;5092121;28;20177;-62
2022/10/03 08:56:00;;;;;;;2.47;1.50;;;;;;;21.58;nan;-24416.88;5092134;28;20256;-64
2022/10/03 08:58:53;;;;;;;3.05;2.03;;;;;;;21.65;nan;-24418.69;5091992;28;20197;-61
2022/10/03 09:01:28;;;;;;;6.32;1.67;;;;;;;21.52;nan;-24415.09;5090088;28;20613;-64
2022/10/03 09:04:14;;;;;;;3.63;1.80;;;;;;;21.58;nan;-24416.75;5092209;28;20157;-62
2022/10/03 09:06:58;;;;;;;2.35;1.77;;;;;;;21.85;nan;-24424.22;5092371;28;20173;-64
2022/10/03 09:09:36;;;;;;;3.22;1.83;;;;;;;22.13;nan;-24431.84;5091901;28;20177;-62
2022/10/03 09:12:41;;;;;;;2.90;2.20;;;;;;;22.07;nan;-24430.03;5092475;28;20172;-65
2022/10/03 09:15:12;;;;;;;4.63;2.17;;;;;;;22.07;nan;-24430.03;5092134;28;20192;-64
2022/10/03 09:18:04;;;;;;;2.72;1.95;;;;;;;22.22;nan;-24434.19;5091490;28;20927;-62
2022/10/03 09:20:35;;;;;;;5.00;2.53;;;;;;;22.18;nan;-24433.09;5092246;28;20189;-64
2022/10/03 09:23:19;;;;;;;2.63;2.10;;;;;;;22.24;nan;-24434.75;5092094;28;20217;-62
2022/10/03 09:26:15;;;;;;;2.30;1.73;;;;;;;22.56;nan;-24443.59;5092269;28;20177;-64
2022/10/03 09:29:22;;;;;;;2.72;1.95;;;;;;;21.85;nan;-24424.22;5085093;28;20671;-64
2022/10/03 09:32:22;;;;;;;5.25;2.20;;;;;;;22.00;nan;-24428.25;5093383;28;20173;-63
2022/10/03 09:35:22;;;;;;;4.35;1.65;;;;;;;22.19;nan;-24433.38;5027814;28;20209;-63
2022/10/03 09:38:21;;;;;;;2.15;1.40;;;;;;;22.07;nan;-24430.19;5091601;28;20619;-65
2022/10/03 09:41:23;;;;;;;2.97;1.63;;;;;;;22.33;nan;-24437.38;5091419;28;20596;-63
2022/10/03 09:44:26;;;;;;;4.55;2.05;;;;;;;22.31;nan;-24436.84;5071559;28;20185;-63
2022/10/03 09:49:47;;;;;;;2.63;1.60;;;;;;;21.62;nan;-24417.84;5069690;28;20188;-66
2022/10/03 09:52:50;;;;;;;1.70;1.40;;;;;;;21.49;nan;-24414.41;5072150;28;20231;-64
2022/10/03 09:55:39;;;;;;;1.33;1.10;;;;;;;21.54;nan;-24415.66;5071899;28;20248;-71
2022/10/03 09:58:22;;;;;;;1.90;1.42;;;;;;;21.48;nan;-24413.97;5071385;28;20252;-68
2022/10/03 10:01:17;;;;;;;1.65;1.38;;;;;;;20.88;nan;-24397.47;5071619;28;20653;-65
2022/10/03 10:03:45;;;;;;;2.45;1.50;;;;;;;21.07;nan;-24402.75;5071625;28;20656;-64
2022/10/03 10:06:41;;;;;;;1.98;1.33;;;;;;;20.92;nan;-24398.59;5071464;28;20548;-65
2022/10/03 10:09:48;;;;;;;1.73;1.30;;;;;;;20.85;nan;-24396.78;5071544;28;20217;-63
2022/10/03 10:12:28;;;;;;;1.35;1.20;;;;;;;20.58;nan;-24389.28;5091428;28;20165;-63
2022/10/03 10:15:02;;;;;;;3.90;1.55;;;;;;;20.49;nan;-24386.78;5091417;28;20165;-67
2022/10/03 10:17:52;;;;;;;2.05;1.30;;;;;;;20.22;nan;-24379.56;5090712;28;20162;-62
2022/10/03 10:20:41;;;;;;;2.53;1.17;;;;;;;20.11;nan;-24376.50;5090702;28;20581;-65
2022/10/03 10:23:37;;;;;;;1.45;1.30;;;;;;;19.55;nan;-24361.09;5084217;28;20226;-65
2022/10/03 10:26:32;;;;;;;1.23;1.13;;;;;;;19.54;nan;-24360.66;5085459;28;20170;-63
2022/10/03 10:29:42;;;;;;;1.20;1.10;;;;;;;19.67;nan;-24364.28;5069075;28;20184;-65
2022/10/03 10:32:16;;;;;;;1.42;1.20;;;;;;;19.51;nan;-24359.84;5051558;28;20197;-64
2022/10/03 10:35:06;;;;;;;1.40;1.30;;;;;;;19.46;nan;-24358.44;5090931;28;20649;-66
2022/10/03 10:38:10;;;;;;;1.55;1.33;;;;;;;19.44;nan;-24357.88;5091249;28;20169;-64
2022/10/03 10:40:45;;;;;;;1.85;1.40;;;;;;;19.31;nan;-24354.53;5090859;28;20181;-64
2022/10/03 10:43:23;;;;;;;1.50;1.20;;;;;;;19.38;nan;-24356.34;5090887;28;20255;-63
2022/10/03 10:46:25;;;;;;;1.27;1.17;;;;;;;19.28;nan;-24353.56;5090401;28;20165;-68
2022/10/03 10:49:28;;;;;;;1.17;1.00;;;;;;;19.24;nan;-24352.47;5091012;28;20181;-64
2022/10/03 10:52:30;;;;;;;2.05;1.30;;;;;;;19.17;nan;-24350.50;5091226;28;20597;-63
2022/10/03 10:55:04;;;;;;;1.27;1.17;;;;;;;19.29;nan;-24354.00;5091661;28;20176;-65
2022/10/03 10:57:54;;;;;;;1.30;1.10;;;;;;;19.32;nan;-24354.81;5091120;28;20207;-63
2022/10/03 11:00:31;;;;;;;2.85;2.03;;;;;;;18.94;nan;-24344.25;5091375;28;20169;-63
2022/10/03 11:03:27;;;;;;;3.35;1.60;;;;;;;19.22;nan;-24352.03;5093858;28;20177;-63
2022/10/03 11:06:17;;;;;;;2.53;1.50;;;;;;;19.11;nan;-24348.97;5095581;28;20173;-63
2022/10/03 11:09:07;;;;;;;2.17;1.88;;;;;;;19.02;nan;-24346.47;5095220;28;20262;-63
2022/10/03 11:11:47;;;;;;;3.40;1.70;;;;;;;19.36;nan;-24355.81;5095227;28;20532;-63
2022/10/03 11:14:37;;;;;;;2.53;1.50;;;;;;;19.40;nan;-24357.06;5094891;28;20172;-63
2022/10/03 11:17:11;;;;;;;1.90;1.60;;;;;;;19.63;nan;-24363.16;5094993;28;20169;-63
2022/10/03 11:19:55;;;;;;;1.85;1.50;;;;;;;19.59;nan;-24362.06;5094932;28;20208;-64
2022/10/03 11:22:26;;;;;;;1.20;1.10;;;;;;;19.24;nan;-24352.47;5094952;28;20617;-64
2022/10/03 11:25:28;;;;;;;1.60;1.30;;;;;;;19.71;nan;-24365.41;5094941;28;20173;-62
2022/10/03 11:28:38;;;;;;;1.98;1.40;;;;;;;19.91;nan;-24370.97;5094915;28;20541;-63
2022/10/03 11:31:22;;;;;;;1.75;1.30;;;;;;;19.65;nan;-24363.72;5094820;28;20181;-62
2022/10/03 11:34:24;;;;;;;1.42;1.33;;;;;;;19.76;nan;-24366.94;5094994;28;20173;-64
2022/10/03 11:37:02;;;;;;;1.40;1.30;;;;;;;19.94;nan;-24371.66;5095035;28;20535;-64
2022/10/03 11:39:40;;;;;;;1.65;1.40;;;;;;;19.92;nan;-24371.22;5094528;28;20197;-64
2022/10/03 11:42:32;;;;;;;2.28;1.42;;;;;;;19.85;nan;-24369.28;5094608;28;20559;-63
2022/10/03 11:45:04;;;;;;;2.33;1.65;;;;;;;19.65;nan;-24363.88;5094580;28;20260;-65
2022/10/03 11:47:57;;;;;;;1.60;1.50;;;;;;;19.76;nan;-24366.78;5094497;28;20181;-64
2022/10/03 11:50:39;;;;;;;2.10;1.63;;;;;;;20.18;nan;-24378.31;5095171;28;20174;-64
2022/10/03 11:53:49;;;;;;;2.33;1.67;;;;;;;19.94;nan;-24371.78;5094666;28;20173;-62
2022/10/03 11:56:23;;;;;;;2.72;1.60;;;;;;;20.46;nan;-24385.97;5011976;28;20266;-63
2022/10/03 11:59:11;;;;;;;1.90;1.55;;;;;;;20.66;nan;-24391.50;5012054;28;20659;-64
2022/10/03 12:02:05;;;;;;;3.40;1.73;;;;;;;20.77;nan;-24394.41;5036402;28;20583;-62
2022/10/03 12:04:43;;;;;;;3.35;1.98;;;;;;;20.60;nan;-24389.97;5093524;28;20217;-63
2022/10/03 12:10:40;;;;;;;1.90;1.70;;;;;;;20.86;nan;-24396.91;4991366;28;20196;-64
2022/10/03 12:13:44;;;;;;;2.75;1.73;;;;;;;20.68;nan;-24392.06;4997549;28;20306;-61
2022/10/03 12:16:30;;;;;;;2.35;1.95;;;;;;;20.62;nan;-24390.53;5066060;28;20201;-62
2022/10/03 12:19:19;;;;;;;3.97;2.10;;;;;;;21.09;nan;-24403.44;5093595;28;20185;-63
2022/10/03 12:22:15;;;;;;;2.22;1.92;;;;;;;21.52;nan;-24415.09;5093477;28;20184;-62
2022/10/03 12:24:43;;;;;;;3.03;2.15;;;;;;;21.22;nan;-24406.91;5092454;28;20742;-63
2022/10/03 12:27:09;;;;;;;2.15;1.83;;;;;;;21.59;nan;-24417.16;5093358;28;20154;-63
2022/10/03 12:29:39;;;;;;;1.77;1.50;;;;;;;21.19;nan;-24405.94;5093860;28;20170;-63
2022/10/03 12:32:16;;;;;;;1.70;1.60;;;;;;;21.54;nan;-24415.66;5093446;28;20164;-64
2022/10/03 12:34:48;;;;;;;3.13;1.88;;;;;;;21.47;nan;-24413.69;5093544;28;20227;-64
2022/10/03 12:37:25;;;;;;;4.00;1.73;;;;;;;21.17;nan;-24405.38;5093258;28;20628;-64
2022/10/03 12:39:53;;;;;;;3.30;1.88;;;;;;;21.07;nan;-24402.88;5093216;28;20576;-63
2022/10/03 12:42:25;;;;;;;1.50;1.40;;;;;;;20.84;nan;-24396.50;5093647;28;20256;-64
2022/10/03 12:45:18;;;;;;;1.65;1.55;;;;;;;20.64;nan;-24391.09;5093030;28;20177;-62
2022/10/03 12:48:12;;;;;;;1.90;1.55;;;;;;;20.39;nan;-24384.03;5093404;28;20176;-64
2022/10/03 12:50:41;;;;;;;2.58;1.88;;;;;;;20.14;nan;-24377.22;5075315;28;20556;-64
2022/10/03 12:53:16;;;;;;;3.13;1.65;;;;;;;20.44;nan;-24385.53;5093476;28;20166;-62
2022/10/03 12:56:13;;;;;;;1.58;1.48;;;;;;;20.52;nan;-24387.63;5093234;28;20177;-66
2022/10/03 12:59:15;;;;;;;2.05;1.70;;;;;;;20.56;nan;-24388.88;5092711;28;20197;-65
2022/10/03 13:02:07;;;;;;;1.75;1.63;;;;;;;20.44;nan;-24385.41;5093678;28;20177;-64
2022/10/03 13:04:53;;;;;;;1.80;1.63;;;;;;;20.53;nan;-24388.03;5093086;28;20208;-64
2022/10/03 13:07:51;;;;;;;2.28;1.70;;;;;;;20.62;nan;-24390.53;5093089;28;20200;-62
2022/10/03 13:10:46;;;;;;;3.05;1.65;;;;;;;20.76;nan;-24394.28;5074859;28;20177;-67
2022/10/03 13:13:19;;;;;;;1.92;1.63;;;;;;;20.78;nan;-24394.69;5086380;28;20182;-62
2022/10/03 13:15:47;;;;;;;1.70;1.60;;;;;;;20.69;nan;-24392.34;5101365;28;20189;-64
2022/10/03 13:18:25;;;;;;;2.72;1.83;;;;;;;20.89;nan;-24397.91;5092415;28;20284;-64
2022/10/03 13:21:13;;;;;;;2.30;1.70;;;;;;;20.83;nan;-24396.22;5092673;28;20248;-64
2022/10/03 13:23:46;;;;;;;1.63;1.48;;;;;;;21.32;nan;-24409.69;5091957;28;20221;-64
2022/10/03 13:26:30;;;;;;;2.67;1.90;;;;;;;21.42;nan;-24412.47;5089916;28;20662;-63
2022/10/03 13:29:26;;;;;;;2.08;1.60;;;;;;;21.69;nan;-24419.78;5091885;28;20168;-62
2022/10/03 13:31:54;;;;;;;1.95;1.75;;;;;;;21.85;nan;-24424.22;5091996;28;20269;-64
2022/10/03 13:34:26;;;;;;;2.35;2.08;;;;;;;21.83;nan;-24423.69;5091887;28;20201;-63
2022/10/03 13:37:24;;;;;;;2.13;1.80;;;;;;;21.79;nan;-24422.44;5092205;28;20169;-63